sensor_id;sensor_type;location;lat;lon;timestamp;pressure;altitude;pressure_sealevel;temperature;humidity
49825;BME280;35714;55.708;37.478;2022-10-28T00:03:43;100059.31;;;5.13;66.87
49825;BME280;35714;55.708;37.478;2022-10-28T00:06:18;100059.84;;;5.23;66.87
49825;BME280;35714;55.708;37.478;2022-10-28T00:08:44;100049.75;;;5.25;66.67
49825;BME280;35714;55.708;37.478;2022-10-28T00:11:12;100044.00;;;5.28;66.66
49825;BME280;35714;55.708;37.478;2022-10-28T00:13:38;100044.28;;;5.33;66.50
49825;BME280;35714;55.708;37.478;2022-10-28T00:16:10;100048.94;;;5.39;66.38
49825;BME280;35714;55.708;37.478;2022-10-28T00:18:37;100057.19;;;5.38;66.37
49825;BME280;35714;55.708;37.478;2022-10-28T00:21:09;100052.81;;;5.37;66.15
49825;BME280;35714;55.708;37.478;2022-10-28T00:23:35;100055.31;;;5.38;66.35
49825;BME280;35714;55.708;37.478;2022-10-28T00:26:12;100052.72;;;5.45;66.26
49825;BME280;35714;55.708;37.478;2022-10-28T00:28:40;100044.81;;;5.43;65.99
49825;BME280;35714;55.708;37.478;2022-10-28T00:31:08;100044.81;;;5.43;65.91
49825;BME280;35714;55.708;37.478;2022-10-28T00:33:34;100043.00;;;5.44;65.75
49825;BME280;35714;55.708;37.478;2022-10-28T00:36:26;100049.09;;;5.53;65.70
49825;BME280;35714;55.708;37.478;2022-10-28T00:38:54;100051.16;;;5.51;65.55
49825;BME280;35714;55.708;37.478;2022-10-28T00:41:26;100054.47;;;5.53;65.58
49825;BME280;35714;55.708;37.478;2022-10-28T00:43:54;100045.03;;;5.57;65.56
49825;BME280;35714;55.708;37.478;2022-10-28T00:49:12;100044.78;;;5.73;64.87
49825;BME280;35714;55.708;37.478;2022-10-28T00:51:40;100046.84;;;5.71;64.86
49825;BME280;35714;55.708;37.478;2022-10-28T00:54:06;100051.50;;;5.77;64.89
49825;BME280;35714;55.708;37.478;2022-10-28T00:56:39;100050.47;;;5.78;64.57
49825;BME280;35714;55.708;37.478;2022-10-28T00:59:15;100043.16;;;5.72;64.88
49825;BME280;35714;55.708;37.478;2022-10-28T01:01:43;100051.22;;;5.72;64.76
49825;BME280;35714;55.708;37.478;2022-10-28T01:04:09;100050.66;;;5.77;64.78
49825;BME280;35714;55.708;37.478;2022-10-28T01:06:35;100052.38;;;5.85;64.46
49825;BME280;35714;55.708;37.478;2022-10-28T01:09:01;100048.69;;;5.86;64.51
49825;BME280;35714;55.708;37.478;2022-10-28T01:11:44;100049.31;;;5.88;64.30
49825;BME280;35714;55.708;37.478;2022-10-28T01:14:21;100056.13;;;5.84;64.20
49825;BME280;35714;55.708;37.478;2022-10-28T01:22:22;100051.41;;;5.56;64.59
49825;BME280;35714;55.708;37.478;2022-10-28T01:25:14;100054.09;;;5.56;64.92
49825;BME280;35714;55.708;37.478;2022-10-28T01:33:29;100047.81;;;5.49;64.88
49825;BME280;35714;55.708;37.478;2022-10-28T01:36:15;100044.63;;;5.45;65.14
49825;BME280;35714;55.708;37.478;2022-10-28T01:38:53;100042.13;;;5.43;65.33
49825;BME280;35714;55.708;37.478;2022-10-28T01:41:59;100035.00;;;5.51;64.92
49825;BME280;35714;55.708;37.478;2022-10-28T01:44:41;100033.31;;;5.50;64.97
49825;BME280;35714;55.708;37.478;2022-10-28T01:47:31;100030.06;;;5.54;65.02
49825;BME280;35714;55.708;37.478;2022-10-28T01:50:03;100025.94;;;5.52;64.90
49825;BME280;35714;55.708;37.478;2022-10-28T01:52:31;100033.88;;;5.60;65.06
49825;BME280;35714;55.708;37.478;2022-10-28T01:55:02;100033.50;;;5.63;64.67
49825;BME280;35714;55.708;37.478;2022-10-28T01:57:29;100023.38;;;5.65;64.57
49825;BME280;35714;55.708;37.478;2022-10-28T01:59:57;100028.59;;;5.67;64.73
49825;BME280;35714;55.708;37.478;2022-10-28T02:02:25;100030.81;;;5.63;64.88
49825;BME280;35714;55.708;37.478;2022-10-28T02:05:00;100036.66;;;5.67;64.52
49825;BME280;35714;55.708;37.478;2022-10-28T02:07:26;100027.09;;;5.64;64.67
49825;BME280;35714;55.708;37.478;2022-10-28T02:10:12;100033.59;;;5.70;64.64
49825;BME280;35714;55.708;37.478;2022-10-28T02:12:40;100034.16;;;5.65;64.58
49825;BME280;35714;55.708;37.478;2022-10-28T02:17:53;100029.41;;;5.67;64.72
49825;BME280;35714;55.708;37.478;2022-10-28T02:20:39;100033.66;;;5.76;64.18
49825;BME280;35714;55.708;37.478;2022-10-28T02:23:20;100022.00;;;5.69;64.44
49825;BME280;35714;55.708;37.478;2022-10-28T02:25:57;100033.13;;;5.66;64.70
49825;BME280;35714;55.708;37.478;2022-10-28T02:28:40;100032.47;;;5.64;65.12
49825;BME280;35714;55.708;37.478;2022-10-28T02:31:29;100036.09;;;5.71;64.79
49825;BME280;35714;55.708;37.478;2022-10-28T02:34:00;100032.56;;;5.71;64.69
49825;BME280;35714;55.708;37.478;2022-10-28T02:36:31;100030.97;;;5.76;64.75
49825;BME280;35714;55.708;37.478;2022-10-28T02:38:59;100028.28;;;5.76;64.72
49825;BME280;35714;55.708;37.478;2022-10-28T02:41:49;100027.97;;;5.86;64.62
49825;BME280;35714;55.708;37.478;2022-10-28T02:44:22;100030.22;;;5.83;64.67
49825;BME280;35714;55.708;37.478;2022-10-28T02:46:50;100034.97;;;5.81;64.42
49825;BME280;35714;55.708;37.478;2022-10-28T02:49:18;100036.84;;;5.80;64.28
49825;BME280;35714;55.708;37.478;2022-10-28T02:51:57;100042.03;;;5.82;64.49
49825;BME280;35714;55.708;37.478;2022-10-28T02:54:28;100037.03;;;5.78;64.56
49825;BME280;35714;55.708;37.478;2022-10-28T02:57:22;100045.72;;;5.81;64.65
49825;BME280;35714;55.708;37.478;2022-10-28T02:59:54;100045.72;;;5.81;64.53
49825;BME280;35714;55.708;37.478;2022-10-28T03:02:20;100045.53;;;5.82;64.65
49825;BME280;35714;55.708;37.478;2022-10-28T03:04:46;100054.06;;;5.86;64.47
49825;BME280;35714;55.708;37.478;2022-10-28T03:07:12;100053.69;;;5.89;64.39
49825;BME280;35714;55.708;37.478;2022-10-28T03:09:37;100043.56;;;5.91;64.37
49825;BME280;35714;55.708;37.478;2022-10-28T03:12:04;100039.22;;;5.90;64.65
49825;BME280;35714;55.708;37.478;2022-10-28T03:14:29;100050.34;;;5.87;64.48
49825;BME280;35714;55.708;37.478;2022-10-28T03:16:55;100034.78;;;5.82;64.51
49825;BME280;35714;55.708;37.478;2022-10-28T03:19:21;100042.03;;;5.82;64.58
49825;BME280;35714;55.708;37.478;2022-10-28T03:21:46;100038.66;;;5.79;64.63
49825;BME280;35714;55.708;37.478;2022-10-28T03:24:12;100044.91;;;5.80;64.89
49825;BME280;35714;55.708;37.478;2022-10-28T03:26:38;100046.09;;;5.77;64.79
49825;BME280;35714;55.708;37.478;2022-10-28T03:29:03;100039.91;;;5.77;65.13
49825;BME280;35714;55.708;37.478;2022-10-28T03:31:29;100035.44;;;5.69;65.26
49825;BME280;35714;55.708;37.478;2022-10-28T03:33:55;100027.38;;;5.69;65.35
49825;BME280;35714;55.708;37.478;2022-10-28T03:36:21;100025.63;;;5.62;65.64
49825;BME280;35714;55.708;37.478;2022-10-28T03:38:47;100035.91;;;5.58;65.80
49825;BME280;35714;55.708;37.478;2022-10-28T03:41:12;100035.09;;;5.57;65.79
49825;BME280;35714;55.708;37.478;2022-10-28T03:43:38;100034.63;;;5.54;66.12
49825;BME280;35714;55.708;37.478;2022-10-28T03:46:04;100025.94;;;5.52;66.14
49825;BME280;35714;55.708;37.478;2022-10-28T03:48:32;100015.25;;;5.58;66.42
49825;BME280;35714;55.708;37.478;2022-10-28T03:50:57;100020.31;;;5.68;66.21
49825;BME280;35714;55.708;37.478;2022-10-28T03:53:24;100020.97;;;5.70;65.91
49825;BME280;35714;55.708;37.478;2022-10-28T03:55:57;100025.31;;;5.71;66.15
49825;BME280;35714;55.708;37.478;2022-10-28T03:58:24;100024.50;;;5.71;66.16
49825;BME280;35714;55.708;37.478;2022-10-28T04:00:51;100026.63;;;5.75;66.10
49825;BME280;35714;55.708;37.478;2022-10-28T04:03:19;100025.41;;;5.78;66.00
49825;BME280;35714;55.708;37.478;2022-10-28T04:05:45;100009.06;;;5.79;65.93
49825;BME280;35714;55.708;37.478;2022-10-28T04:08:15;100009.31;;;5.85;65.87
49825;BME280;35714;55.708;37.478;2022-10-28T04:10:41;100014.81;;;5.76;65.85
49825;BME280;35714;55.708;37.478;2022-10-28T04:13:08;100014.19;;;5.74;66.04
49825;BME280;35714;55.708;37.478;2022-10-28T04:15:34;100006.50;;;5.71;66.38
49825;BME280;35714;55.708;37.478;2022-10-28T04:18:00;99998.78;;;5.68;65.92
49825;BME280;35714;55.708;37.478;2022-10-28T04:20:26;100012.88;;;5.70;66.05
49825;BME280;35714;55.708;37.478;2022-10-28T04:22:52;100017.06;;;5.73;66.02
49825;BME280;35714;55.708;37.478;2022-10-28T04:25:23;100011.50;;;5.74;66.04
49825;BME280;35714;55.708;37.478;2022-10-28T04:27:49;100008.81;;;5.74;66.47
49825;BME280;35714;55.708;37.478;2022-10-28T04:30:15;100008.88;;;5.81;66.30
49825;BME280;35714;55.708;37.478;2022-10-28T04:32:41;100009.41;;;5.91;66.15
49825;BME280;35714;55.708;37.478;2022-10-28T04:35:08;100011.53;;;5.96;65.91
49825;BME280;35714;55.708;37.478;2022-10-28T04:37:35;100001.44;;;5.98;65.79
49825;BME280;35714;55.708;37.478;2022-10-28T04:40:00;100006.16;;;5.96;65.60
49825;BME280;35714;55.708;37.478;2022-10-28T04:42:26;100007.38;;;5.93;65.71
49825;BME280;35714;55.708;37.478;2022-10-28T04:44:52;100013.56;;;5.94;65.83
49825;BME280;35714;55.708;37.478;2022-10-28T04:47:18;100007.56;;;5.92;65.93
49825;BME280;35714;55.708;37.478;2022-10-28T04:49:43;100009.72;;;5.96;66.24
49825;BME280;35714;55.708;37.478;2022-10-28T04:52:09;100021.97;;;5.99;65.98
49825;BME280;35714;55.708;37.478;2022-10-28T04:54:35;100018.69;;;6.04;65.88
49825;BME280;35714;55.708;37.478;2022-10-28T04:57:01;100017.53;;;6.13;66.00
49825;BME280;35714;55.708;37.478;2022-10-28T04:59:26;100018.75;;;6.10;65.77
49825;BME280;35714;55.708;37.478;2022-10-28T05:01:52;100008.81;;;6.11;65.78
49825;BME280;35714;55.708;37.478;2022-10-28T05:04:18;100011.06;;;6.07;66.19
49825;BME280;35714;55.708;37.478;2022-10-28T05:06:44;100008.75;;;6.04;66.38
49825;BME280;35714;55.708;37.478;2022-10-28T05:09:09;100005.06;;;6.05;66.26
49825;BME280;35714;55.708;37.478;2022-10-28T05:11:35;99996.59;;;6.08;66.44
49825;BME280;35714;55.708;37.478;2022-10-28T05:14:01;100002.63;;;6.10;66.28
49825;BME280;35714;55.708;37.478;2022-10-28T05:16:27;99999.28;;;6.08;65.96
49825;BME280;35714;55.708;37.478;2022-10-28T05:18:53;99993.97;;;6.15;66.36
49825;BME280;35714;55.708;37.478;2022-10-28T05:21:18;100006.53;;;6.29;66.24
49825;BME280;35714;55.708;37.478;2022-10-28T05:23:44;100008.19;;;6.30;65.99
49825;BME280;35714;55.708;37.478;2022-10-28T05:26:11;100016.84;;;6.26;66.13
49825;BME280;35714;55.708;37.478;2022-10-28T05:28:37;100011.84;;;6.23;66.42
49825;BME280;35714;55.708;37.478;2022-10-28T05:31:03;100008.97;;;6.24;66.30
49825;BME280;35714;55.708;37.478;2022-10-28T05:33:28;100007.28;;;6.23;66.56
49825;BME280;35714;55.708;37.478;2022-10-28T05:35:54;100007.44;;;6.15;66.83
49825;BME280;35714;55.708;37.478;2022-10-28T05:38:20;100018.75;;;6.10;67.19
49825;BME280;35714;55.708;37.478;2022-10-28T05:40:45;100018.50;;;6.05;67.16
49825;BME280;35714;55.708;37.478;2022-10-28T05:43:11;100022.47;;;6.09;67.02
49825;BME280;35714;55.708;37.478;2022-10-28T05:45:37;100021.66;;;6.09;67.14
49825;BME280;35714;55.708;37.478;2022-10-28T05:48:02;100024.34;;;6.09;67.50
49825;BME280;35714;55.708;37.478;2022-10-28T05:50:28;100023.09;;;6.11;67.81
49825;BME280;35714;55.708;37.478;2022-10-28T05:52:55;100027.09;;;6.16;67.68
49825;BME280;35714;55.708;37.478;2022-10-28T05:55:23;100025.94;;;6.25;67.78
49825;BME280;35714;55.708;37.478;2022-10-28T05:57:50;100018.59;;;6.34;67.28
49825;BME280;35714;55.708;37.478;2022-10-28T06:00:17;100020.28;;;6.41;67.27
49825;BME280;35714;55.708;37.478;2022-10-28T06:02:43;100015.81;;;6.48;67.18
49825;BME280;35714;55.708;37.478;2022-10-28T06:05:10;100019.13;;;6.50;66.69
49825;BME280;35714;55.708;37.478;2022-10-28T06:07:38;100020.66;;;6.60;66.79
49825;BME280;35714;55.708;37.478;2022-10-28T06:10:04;100013.44;;;6.60;67.02
49825;BME280;35714;55.708;37.478;2022-10-28T06:12:31;100012.84;;;6.65;66.75
49825;BME280;35714;55.708;37.478;2022-10-28T06:14:56;100018.88;;;6.67;66.84
49825;BME280;35714;55.708;37.478;2022-10-28T06:17:22;100020.53;;;6.68;66.66
49825;BME280;35714;55.708;37.478;2022-10-28T06:19:48;100016.03;;;6.75;66.72
49825;BME280;35714;55.708;37.478;2022-10-28T06:22:14;100011.94;;;6.79;66.78
49825;BME280;35714;55.708;37.478;2022-10-28T06:24:40;100009.03;;;6.81;66.81
49825;BME280;35714;55.708;37.478;2022-10-28T06:27:06;100008.19;;;6.80;66.73
49825;BME280;35714;55.708;37.478;2022-10-28T06:29:33;100015.25;;;6.81;66.77
49825;BME280;35714;55.708;37.478;2022-10-28T06:31:58;100018.97;;;6.80;66.99
49825;BME280;35714;55.708;37.478;2022-10-28T06:34:24;100013.97;;;6.77;67.01
49825;BME280;35714;55.708;37.478;2022-10-28T06:36:50;100016.44;;;6.72;67.52
49825;BME280;35714;55.708;37.478;2022-10-28T06:39:16;100015.13;;;6.68;67.46
49825;BME280;35714;55.708;37.478;2022-10-28T06:41:41;100014.75;;;6.71;67.67
49825;BME280;35714;55.708;37.478;2022-10-28T06:44:08;100002.16;;;6.78;67.49
49825;BME280;35714;55.708;37.478;2022-10-28T06:46:33;99998.94;;;6.90;67.45
49825;BME280;35714;55.708;37.478;2022-10-28T06:48:59;99996.63;;;6.86;67.49
49825;BME280;35714;55.708;37.478;2022-10-28T06:51:28;99992.00;;;6.80;67.90
49825;BME280;35714;55.708;37.478;2022-10-28T06:53:54;100001.78;;;6.81;68.03
49825;BME280;35714;55.708;37.478;2022-10-28T06:56:20;99998.72;;;6.91;68.42
49825;BME280;35714;55.708;37.478;2022-10-28T06:58:50;99999.66;;;7.05;68.23
49825;BME280;35714;55.708;37.478;2022-10-28T07:01:17;100000.53;;;7.12;67.98
49825;BME280;35714;55.708;37.478;2022-10-28T07:03:43;100000.59;;;7.26;67.96
49825;BME280;35714;55.708;37.478;2022-10-28T07:06:09;100004.41;;;7.38;67.68
49825;BME280;35714;55.708;37.478;2022-10-28T07:08:35;99992.81;;;7.44;67.66
49825;BME280;35714;55.708;37.478;2022-10-28T07:11:01;99990.38;;;7.56;67.44
49825;BME280;35714;55.708;37.478;2022-10-28T07:13:28;99983.16;;;7.70;66.87
49825;BME280;35714;55.708;37.478;2022-10-28T07:15:55;99992.13;;;7.77;66.58
49825;BME280;35714;55.708;37.478;2022-10-28T07:18:23;99988.81;;;7.75;66.06
49825;BME280;35714;55.708;37.478;2022-10-28T07:20:49;99983.41;;;7.75;66.17
49825;BME280;35714;55.708;37.478;2022-10-28T07:23:14;99985.06;;;7.76;65.97
49825;BME280;35714;55.708;37.478;2022-10-28T07:25:41;99984.66;;;7.79;66.17
49825;BME280;35714;55.708;37.478;2022-10-28T07:28:06;99988.81;;;7.82;66.39
49825;BME280;35714;55.708;37.478;2022-10-28T07:30:32;99985.91;;;7.83;65.88
49825;BME280;35714;55.708;37.478;2022-10-28T07:32:58;99999.63;;;7.95;66.06
49825;BME280;35714;55.708;37.478;2022-10-28T07:35:29;99991.59;;;8.02;66.16
49825;BME280;35714;55.708;37.478;2022-10-28T07:37:56;99995.94;;;8.09;66.06
49825;BME280;35714;55.708;37.478;2022-10-28T07:40:23;99993.25;;;8.16;65.64
49825;BME280;35714;55.708;37.478;2022-10-28T07:42:49;99987.66;;;8.24;65.13
49825;BME280;35714;55.708;37.478;2022-10-28T07:45:16;99995.56;;;8.26;65.08
49825;BME280;35714;55.708;37.478;2022-10-28T07:47:42;99991.84;;;8.27;65.28
49825;BME280;35714;55.708;37.478;2022-10-28T07:50:08;99998.06;;;8.41;65.42
49825;BME280;35714;55.708;37.478;2022-10-28T07:52:35;99989.38;;;8.52;64.95
49825;BME280;35714;55.708;37.478;2022-10-28T07:55:05;99998.53;;;8.58;64.47
49825;BME280;35714;55.708;37.478;2022-10-28T07:57:33;99990.63;;;8.70;64.48
49825;BME280;35714;55.708;37.478;2022-10-28T07:59:59;99986.88;;;8.84;64.56
49825;BME280;35714;55.708;37.478;2022-10-28T08:02:25;99986.03;;;8.97;63.93
49825;BME280;35714;55.708;37.478;2022-10-28T08:04:51;99983.50;;;9.09;63.60
49825;BME280;35714;55.708;37.478;2022-10-28T08:07:18;99993.06;;;9.25;63.40
49825;BME280;35714;55.708;37.478;2022-10-28T08:09:44;99983.88;;;9.32;62.60
49825;BME280;35714;55.708;37.478;2022-10-28T08:12:12;99985.72;;;9.38;62.34
49825;BME280;35714;55.708;37.478;2022-10-28T08:14:38;99985.13;;;9.30;62.40
49825;BME280;35714;55.708;37.478;2022-10-28T08:17:04;99995.31;;;9.21;62.59
49825;BME280;35714;55.708;37.478;2022-10-28T08:19:30;99988.91;;;9.15;62.89
49825;BME280;35714;55.708;37.478;2022-10-28T08:21:55;99984.72;;;9.13;62.73
49825;BME280;35714;55.708;37.478;2022-10-28T08:24:22;99992.22;;;9.17;62.68
49825;BME280;35714;55.708;37.478;2022-10-28T08:26:47;99995.97;;;9.10;63.15
49825;BME280;35714;55.708;37.478;2022-10-28T08:29:13;99997.66;;;9.11;63.12
49825;BME280;35714;55.708;37.478;2022-10-28T08:31:39;99987.47;;;9.06;63.33
49825;BME280;35714;55.708;37.478;2022-10-28T08:34:05;99988.91;;;9.15;63.32
49825;BME280;35714;55.708;37.478;2022-10-28T08:36:31;99995.75;;;9.18;63.08
49825;BME280;35714;55.708;37.478;2022-10-28T08:38:58;99995.75;;;9.18;63.11
49825;BME280;35714;55.708;37.478;2022-10-28T08:49:23;99982.44;;;9.23;63.11
49825;BME280;35714;55.708;37.478;2022-10-28T08:54:25;99974.00;;;9.45;63.21
49825;BME280;35714;55.708;37.478;2022-10-28T08:56:51;99970.84;;;9.61;62.46
49825;BME280;35714;55.708;37.478;2022-10-28T08:59:45;99958.63;;;9.84;62.16
49825;BME280;35714;55.708;37.478;2022-10-28T09:02:20;99963.38;;;9.95;61.33
49825;BME280;35714;55.708;37.478;2022-10-28T09:05:33;99970.63;;;10.01;61.56
49825;BME280;35714;55.708;37.478;2022-10-28T09:07:35;99958.63;;;10.22;61.25
49825;BME280;35714;55.708;37.478;2022-10-28T09:10:04;99965.75;;;10.49;60.76
49825;BME280;35714;55.708;37.478;2022-10-28T09:17:54;99955.34;;;10.89;59.27
49825;BME280;35714;55.708;37.478;2022-10-28T09:20:28;99957.41;;;10.94;59.28
49825;BME280;35714;55.708;37.478;2022-10-28T09:22:58;99956.28;;;11.38;59.31
49825;BME280;35714;55.708;37.478;2022-10-28T09:25:47;99953.28;;;12.50;56.62
49825;BME280;35714;55.708;37.478;2022-10-28T09:31:38;99938.47;;;14.43;50.92
49825;BME280;35714;55.708;37.478;2022-10-28T09:36:59;99929.97;;;15.13;47.75
49825;BME280;35714;55.708;37.478;2022-10-28T09:39:33;99922.94;;;14.61;48.12
49825;BME280;35714;55.708;37.478;2022-10-28T09:42:02;99923.38;;;14.24;49.66
49825;BME280;35714;55.708;37.478;2022-10-28T09:44:42;99920.31;;;14.03;50.09
49825;BME280;35714;55.708;37.478;2022-10-28T09:47:22;99927.34;;;13.99;50.26
49825;BME280;35714;55.708;37.478;2022-10-28T09:49:51;99922.13;;;13.69;50.54
49825;BME280;35714;55.708;37.478;2022-10-28T09:52:23;99921.88;;;13.53;50.88
49825;BME280;35714;55.708;37.478;2022-10-28T09:54:51;99919.88;;;13.49;51.40
49825;BME280;35714;55.708;37.478;2022-10-28T09:57:18;99915.00;;;13.51;51.47
49825;BME280;35714;55.708;37.478;2022-10-28T09:59:44;99903.75;;;13.47;51.35
49825;BME280;35714;55.708;37.478;2022-10-28T10:02:33;99905.53;;;13.42;51.67
49825;BME280;35714;55.708;37.478;2022-10-28T10:05:01;99909.03;;;13.13;51.99
49825;BME280;35714;55.708;37.478;2022-10-28T10:07:35;99909.66;;;12.68;53.28
49825;BME280;35714;55.708;37.478;2022-10-28T10:10:09;99904.69;;;12.30;54.30
49825;BME280;35714;55.708;37.478;2022-10-28T10:12:37;99899.31;;;12.11;54.59
49825;BME280;35714;55.708;37.478;2022-10-28T10:15:06;99902.16;;;12.04;54.98
49825;BME280;35714;55.708;37.478;2022-10-28T10:17:40;99895.41;;;11.95;55.48
49825;BME280;35714;55.708;37.478;2022-10-28T10:20:12;99898.66;;;11.85;55.65
49825;BME280;35714;55.708;37.478;2022-10-28T10:22:40;99896.69;;;11.74;55.96
49825;BME280;35714;55.708;37.478;2022-10-28T10:30:30;99888.84;;;11.54;56.91
49825;BME280;35714;55.708;37.478;2022-10-28T10:32:58;99891.16;;;11.50;57.02
49825;BME280;35714;55.708;37.478;2022-10-28T10:35:27;99886.94;;;11.54;56.93
49825;BME280;35714;55.708;37.478;2022-10-28T10:37:56;99876.88;;;11.43;57.23
49825;BME280;35714;55.708;37.478;2022-10-28T10:40:48;99859.78;;;11.24;57.29
49825;BME280;35714;55.708;37.478;2022-10-28T10:43:29;99881.50;;;11.24;57.92
49825;BME280;35714;55.708;37.478;2022-10-28T10:46:12;99879.31;;;11.14;58.22
49825;BME280;35714;55.708;37.478;2022-10-28T10:48:38;99876.91;;;11.06;58.41
49825;BME280;35714;55.708;37.478;2022-10-28T10:51:24;99880.47;;;11.07;58.57
49825;BME280;35714;55.708;37.478;2022-10-28T10:53:55;99883.09;;;10.95;58.95
49825;BME280;35714;55.708;37.478;2022-10-28T10:56:32;99886.03;;;10.93;59.17
49825;BME280;35714;55.708;37.478;2022-10-28T10:58:59;99877.97;;;10.87;59.46
49825;BME280;35714;55.708;37.478;2022-10-28T11:01:35;99862.75;;;10.86;59.72
49825;BME280;35714;55.708;37.478;2022-10-28T11:04:05;99864.78;;;10.90;59.52
49825;BME280;35714;55.708;37.478;2022-10-28T11:06:36;99863.50;;;10.93;59.55
49825;BME280;35714;55.708;37.478;2022-10-28T11:09:05;99857.63;;;10.96;59.58
49825;BME280;35714;55.708;37.478;2022-10-28T11:11:36;99858.38;;;11.03;59.53
49825;BME280;35714;55.708;37.478;2022-10-28T11:14:25;99849.91;;;11.11;59.16
49825;BME280;35714;55.708;37.478;2022-10-28T11:16:52;99849.91;;;11.11;59.14
49825;BME280;35714;55.708;37.478;2022-10-28T11:30:04;99850.31;;;11.15;59.44
49825;BME280;35714;55.708;37.478;2022-10-28T11:32:53;99849.75;;;11.25;59.30
49825;BME280;35714;55.708;37.478;2022-10-28T11:55:44;99844.97;;;11.08;59.78
49825;BME280;35714;55.708;37.478;2022-10-28T11:58:25;99832.66;;;11.06;59.88
49825;BME280;35714;55.708;37.478;2022-10-28T12:06:39;99819.78;;;11.01;60.04
49825;BME280;35714;55.708;37.478;2022-10-28T12:14:56;99814.72;;;10.86;60.40
49825;BME280;35714;55.708;37.478;2022-10-28T12:17:39;99821.00;;;10.87;60.28
49825;BME280;35714;55.708;37.478;2022-10-28T12:20:22;99823.09;;;10.84;60.37
49825;BME280;35714;55.708;37.478;2022-10-28T12:22:54;99827.66;;;10.72;60.68
49825;BME280;35714;55.708;37.478;2022-10-28T12:25:25;99825.84;;;10.66;60.93
49825;BME280;35714;55.708;37.478;2022-10-28T12:27:54;99818.16;;;10.63;61.17
49825;BME280;35714;55.708;37.478;2022-10-28T12:30:30;99815.44;;;10.63;61.17
49825;BME280;35714;55.708;37.478;2022-10-28T12:33:01;99808.81;;;10.59;61.41
49825;BME280;35714;55.708;37.478;2022-10-28T12:35:38;99810.00;;;10.63;61.41
49825;BME280;35714;55.708;37.478;2022-10-28T12:41:41;99806.63;;;10.68;61.54
49825;BME280;35714;55.708;37.478;2022-10-28T12:43:48;99811.66;;;10.64;61.52
49825;BME280;35714;55.708;37.478;2022-10-28T12:46:25;99806.47;;;10.62;61.67
49825;BME280;35714;55.708;37.478;2022-10-28T12:49:19;99808.81;;;10.59;61.81
49825;BME280;35714;55.708;37.478;2022-10-28T12:51:43;99801.72;;;10.58;61.77
49825;BME280;35714;55.708;37.478;2022-10-28T12:56:47;99806.69;;;10.61;62.05
49825;BME280;35714;55.708;37.478;2022-10-28T12:59:36;99808.72;;;10.65;61.93
49825;BME280;35714;55.708;37.478;2022-10-28T13:02:03;99804.13;;;10.66;62.10
49825;BME280;35714;55.708;37.478;2022-10-28T13:04:36;99806.84;;;10.66;62.10
49825;BME280;35714;55.708;37.478;2022-10-28T13:25:14;99786.16;;;10.53;62.44
49825;BME280;35714;55.708;37.478;2022-10-28T13:27:44;99786.97;;;10.54;62.49
49825;BME280;35714;55.708;37.478;2022-10-28T13:30:16;99783.44;;;10.53;62.66
49825;BME280;35714;55.708;37.478;2022-10-28T13:32:43;99786.81;;;10.49;62.74
49825;BME280;35714;55.708;37.478;2022-10-28T13:35:21;99788.47;;;10.50;62.56
49825;BME280;35714;55.708;37.478;2022-10-28T13:37:50;99792.25;;;10.49;62.70
49825;BME280;35714;55.708;37.478;2022-10-28T13:40:22;99790.22;;;10.44;62.81
49825;BME280;35714;55.708;37.478;2022-10-28T13:42:48;99794.78;;;10.43;63.02
49825;BME280;35714;55.708;37.478;2022-10-28T13:53:53;99788.75;;;10.41;63.39
49825;BME280;35714;55.708;37.478;2022-10-28T13:56:39;99784.84;;;10.37;63.39
49825;BME280;35714;55.708;37.478;2022-10-28T14:04:23;99769.78;;;10.41;63.64
49825;BME280;35714;55.708;37.478;2022-10-28T14:07:20;99775.22;;;10.41;63.54
49825;BME280;35714;55.708;37.478;2022-10-28T14:09:49;99771.91;;;10.39;63.60
49825;BME280;35714;55.708;37.478;2022-10-28T14:12:30;99768.13;;;10.40;63.74
49825;BME280;35714;55.708;37.478;2022-10-28T14:17:36;99770.81;;;10.40;64.17
49825;BME280;35714;55.708;37.478;2022-10-28T14:20:06;99774.84;;;10.38;64.24
49825;BME280;35714;55.708;37.478;2022-10-28T14:22:43;99779.03;;;10.34;64.34
49825;BME280;35714;55.708;37.478;2022-10-28T14:36:39;99770.34;;;10.25;65.27
49825;BME280;35714;55.708;37.478;2022-10-28T14:39:58;99774.41;;;10.16;66.01
49825;BME280;35714;55.708;37.478;2022-10-28T14:48:39;99767.78;;;9.86;67.83
49825;BME280;35714;55.708;37.478;2022-10-28T14:51:14;99757.03;;;9.80;68.24
49825;BME280;35714;55.708;37.478;2022-10-28T14:53:45;99765.59;;;9.77;68.66
49825;BME280;35714;55.708;37.478;2022-10-28T14:56:22;99763.31;;;9.73;68.87
49825;BME280;35714;55.708;37.478;2022-10-28T14:58:49;99766.69;;;9.69;69.22
49825;BME280;35714;55.708;37.478;2022-10-28T15:03:43;99754.41;;;9.66;69.58
49825;BME280;35714;55.708;37.478;2022-10-28T15:09:03;99750.66;;;9.67;69.67
49825;BME280;35714;55.708;37.478;2022-10-28T15:11:30;99756.53;;;9.64;69.91
49825;BME280;35714;55.708;37.478;2022-10-28T15:14:11;99759.22;;;9.64;69.80
49825;BME280;35714;55.708;37.478;2022-10-28T15:16:46;99755.91;;;9.62;69.98
49825;BME280;35714;55.708;37.478;2022-10-28T15:19:19;99756.09;;;9.67;70.03
49825;BME280;35714;55.708;37.478;2022-10-28T15:22:02;99765.19;;;9.73;69.78
49825;BME280;35714;55.708;37.478;2022-10-28T15:24:28;99752.50;;;9.73;70.06
49825;BME280;35714;55.708;37.478;2022-10-28T15:26:55;99761.50;;;9.67;70.79
49825;BME280;35714;55.708;37.478;2022-10-28T15:29:22;99742.59;;;9.61;71.24
49825;BME280;35714;55.708;37.478;2022-10-28T15:34:29;99747.44;;;9.52;72.43
49825;BME280;35714;55.708;37.478;2022-10-28T15:36:55;99737.72;;;9.44;72.80
49825;BME280;35714;55.708;37.478;2022-10-28T15:39:22;99734.63;;;9.41;73.23
49825;BME280;35714;55.708;37.478;2022-10-28T15:41:49;99738.22;;;9.34;73.24
49825;BME280;35714;55.708;37.478;2022-10-28T15:46:56;99725.72;;;9.33;73.13